Yoshomaru — JD3048 — position and weather

sailwx.info

Track history (hours):
 
Tides and Currents Weather Stations Pressure Air Temp Water Temp Dewpoint Dewpoint Depression Visibility Wind Speed Wind Dir Waves Ship Positions

Yoshomaru

Last reported at 2017-Nov-20 00:30 UTC. Time now 2017-Nov-23 13:07 UTC.
Position N 34°33' E 135°26'.

Length 63 m; draft 4.3 m.

Type: Tanker. MMSI: 431001343.

Date/timePositionNaut miles runAvg speedWind from/ knotsBaromVisibWave heightAir tempDewpointWater temp
2017-Nov-20 00:30N 34°33' E 135°26'0 0.0
2017-Nov-20 00:00N 34°33' E 135°26'0 0.0
2017-Nov-19 23:30N 34°33' E 135°26'0 0.0
2017-Nov-19 22:58N 34°33' E 135°26'0 0.2
2017-Nov-19 22:26N 34°33' E 135°26'3 7.0
2017-Nov-19 21:59N 34°32' E 135°22'1 1.0
2017-Nov-19 20:34N 34°31' E 135°21'0 0.0
2017-Nov-19 20:12N 34°31' E 135°21'0 0.0
2017-Nov-19 19:45N 34°31' E 135°21'0 0.0
2017-Nov-19 19:20N 34°31' E 135°21'0 0.0
2017-Nov-19 18:56N 34°31' E 135°21'0 0.0
2017-Nov-19 18:05N 34°31' E 135°21'0 0.0
2017-Nov-19 17:37N 34°31' E 135°21'0 0.0
2017-Nov-19 17:23N 34°31' E 135°21'0 0.0
2017-Nov-19 16:57N 34°31' E 135°21'0 0.0
2017-Nov-19 15:56N 34°31' E 135°21'0 0.0
2017-Nov-19 15:27N 34°31' E 135°21'0 0.0
2017-Nov-19 15:00N 34°31' E 135°21'0 0.0
2017-Nov-19 14:17N 34°31' E 135°21'0 0.0
2017-Nov-19 13:37N 34°31' E 135°21'0 0.0
2017-Nov-19 13:29N 34°31' E 135°21'0 0.0
2017-Nov-19 12:53N 34°31' E 135°21'0 0.0
2017-Nov-19 12:22N 34°31' E 135°21'0 0.0
2017-Nov-19 12:00N 34°31' E 135°21'0 0.0
2017-Nov-19 11:28N 34°31' E 135°21'0 0.0
2017-Nov-19 11:00N 34°31' E 135°21'4 8.2
2017-Nov-19 10:30N 34°29' E 135°17'610.6
2017-Nov-19 09:54N 34°26' E 135°11'410.6
2017-Nov-19 09:30N 34°22' E 135°07'810.0
2017-Nov-19 08:42N 34°15' E 135°04'210.1
2017-Nov-19 08:28N 34°13' E 135°06'6 5.6
2017-Nov-19 07:19N 34°09' E 135°12'0 0.2
2017-Nov-19 07:00N 34°09' E 135°12'0 0.1
2017-Nov-19 06:31N 34°09' E 135°12'0 0.0
2017-Nov-19 06:00N 34°09' E 135°12'0 0.0
2017-Nov-19 05:30N 34°09' E 135°12'1 1.9
2017-Nov-19 05:00N 34°09' E 135°11'0 0.6
2017-Nov-19 04:30N 34°09' E 135°11'1 3.0
2017-Nov-19 04:00N 34°09' E 135°10'0 0.1
2017-Nov-19 03:30N 34°09' E 135°09'0 0.0
2017-Nov-19 03:00N 34°09' E 135°09'0 0.0
2017-Nov-19 02:30N 34°09' E 135°09'0 0.0
2017-Nov-19 02:00N 34°09' E 135°09'0 0.0
2017-Nov-19 01:30N 34°09' E 135°09'0 0.0
2017-Nov-19 01:01N 34°09' E 135°09'0 0.0
2017-Nov-19 00:30N 34°09' E 135°09'0 0.0
2017-Nov-19 00:00N 34°09' E 135°09'0 0.0
2017-Nov-18 23:30N 34°09' E 135°09'0 0.0
2017-Nov-18 23:00N 34°09' E 135°09'0 0.0
2017-Nov-18 22:30N 34°09' E 135°09'0 0.0
2017-Nov-18 22:00N 34°09' E 135°09'0 0.0
2017-Nov-18 21:30N 34°09' E 135°09'0 0.1
2017-Nov-18 21:01N 34°09' E 135°09'0 0.0
2017-Nov-18 20:30N 34°09' E 135°09'0 0.0
2017-Nov-18 20:00N 34°09' E 135°09'0 0.1
2017-Nov-18 19:31N 34°09' E 135°09'0 0.1
2017-Nov-18 19:00N 34°09' E 135°09'0 0.0
2017-Nov-18 18:29N 34°09' E 135°09'0 0.0
2017-Nov-18 18:01N 34°09' E 135°09'0 0.0
2017-Nov-18 17:31N 34°09' E 135°09'0 0.0
2017-Nov-18 17:00N 34°09' E 135°09'0 0.0
2017-Nov-18 16:30N 34°09' E 135°09'0 0.0
2017-Nov-18 16:00N 34°09' E 135°09'0 0.0
2017-Nov-18 15:30N 34°09' E 135°09'0 0.0
2017-Nov-18 15:00N 34°09' E 135°09'0 0.0
2017-Nov-18 14:30N 34°09' E 135°09'0 0.0
2017-Nov-18 14:00N 34°09' E 135°09'2 4.7
2017-Nov-18 13:30N 34°11' E 135°08'711.4
2017-Nov-18 12:51N 34°18' E 135°04'1012.1
2017-Nov-18 12:03N 34°26' E 135°11'111.5
2017-Nov-18 12:00N 34°26' E 135°11'611.4
2017-Nov-18 11:30N 34°30' E 135°16'711.7
2017-Nov-18 10:53N 34°33' E 135°24'2 4.5
2017-Nov-18 10:30N 34°33' E 135°26'0 0.0
2017-Nov-18 10:00N 34°33' E 135°26'0 0.0
2017-Nov-18 09:30N 34°33' E 135°26'0 0.0
2017-Nov-18 09:00N 34°33' E 135°26'0 0.0
2017-Nov-18 08:25N 34°33' E 135°26'0 0.0
2017-Nov-18 07:53N 34°33' E 135°26'0 0.0
2017-Nov-18 07:30N 34°33' E 135°26'0 0.0
2017-Nov-18 07:00N 34°33' E 135°26'0 0.0
2017-Nov-18 06:30N 34°33' E 135°26'3 4.9
2017-Nov-18 05:59N 34°33' E 135°23'610.7
2017-Nov-18 05:28N 34°30' E 135°17'510.8
2017-Nov-18 05:00N 34°27' E 135°12'610.0
2017-Nov-18 04:26N 34°22' E 135°08'5 9.9
2017-Nov-18 03:58N 34°19' E 135°04'4 8.3
2017-Nov-18 03:31N 34°15' E 135°04'510.7
2017-Nov-18 03:00N 34°10' E 135°08'4 1.8
2017-Nov-18 01:04N 34°09' E 135°12'0 0.0
2017-Nov-18 00:58N 34°09' E 135°12'0 0.0
2017-Nov-18 00:30N 34°09' E 135°12'0 0.0
2017-Nov-18 00:00N 34°09' E 135°12'1 2.1
2017-Nov-17 23:31N 34°09' E 135°11'1 1.9
2017-Nov-17 23:00N 34°09' E 135°10'0 0.0
2017-Nov-17 22:31N 34°09' E 135°10'0 0.0
2017-Nov-17 22:00N 34°09' E 135°10'0 0.0
2017-Nov-17 21:30N 34°09' E 135°10'0 0.0
2017-Nov-17 21:00N 34°09' E 135°10'0 0.0
2017-Nov-17 20:31N 34°09' E 135°10'0 0.0
2017-Nov-17 20:00N 34°09' E 135°10'0 0.0
2017-Nov-17 19:30N 34°09' E 135°10'0 0.0
2017-Nov-17 19:00N 34°09' E 135°10'0 0.1
2017-Nov-17 18:30N 34°09' E 135°10'0 0.0
2017-Nov-17 18:01N 34°09' E 135°10'0 0.0
2017-Nov-17 17:30N 34°09' E 135°10'0 0.0
2017-Nov-17 17:00N 34°09' E 135°10'0 0.0
2017-Nov-17 16:30N 34°09' E 135°10'0 0.0
2017-Nov-17 16:01N 34°09' E 135°10'0 0.0
2017-Nov-17 15:30N 34°09' E 135°10'0 0.0
2017-Nov-17 15:00N 34°09' E 135°10'0 0.1
2017-Nov-17 14:30N 34°09' E 135°10'0 0.0
2017-Nov-17 14:00N 34°09' E 135°10'0 0.0
2017-Nov-17 13:31N 34°09' E 135°10'0 0.0
2017-Nov-17 13:00N 34°09' E 135°10'0 0.1
2017-Nov-17 12:30N 34°09' E 135°10'0 0.0
2017-Nov-17 12:00N 34°09' E 135°10'0 0.0
2017-Nov-17 11:30N 34°09' E 135°10'0 0.0
2017-Nov-17 11:00N 34°09' E 135°10'0 0.0
2017-Nov-17 10:30N 34°09' E 135°10'0 0.0
2017-Nov-17 10:00N 34°09' E 135°10'0 0.1
2017-Nov-17 09:30N 34°09' E 135°10'0 0.1
2017-Nov-17 09:00N 34°09' E 135°10'0 0.1
2017-Nov-17 08:30N 34°09' E 135°10'2 4.8
2017-Nov-17 08:00N 34°11' E 135°08'611.2
2017-Nov-17 07:30N 34°15' E 135°03'1311.2
2017-Nov-17 06:21N 34°26' E 135°11'1311.3
2017-Nov-17 05:10N 34°33' E 135°25'1 3.7
2017-Nov-17 05:00N 34°33' E 135°26'0 0.0
2017-Nov-17 04:30N 34°33' E 135°26'0 0.0
2017-Nov-17 04:00N 34°33' E 135°26'0 0.0
2017-Nov-17 03:30N 34°33' E 135°26'0 0.0
2017-Nov-17 03:00N 34°33' E 135°26'0 0.0
2017-Nov-17 02:30N 34°33' E 135°26'0 0.0
2017-Nov-17 02:00N 34°33' E 135°26'0 0.0
2017-Nov-17 01:30N 34°33' E 135°26'0 0.0
2017-Nov-17 01:00N 34°33' E 135°26'0 0.4
2017-Nov-17 00:29N 34°33' E 135°26'5 9.2
2017-Nov-16 23:59N 34°32' E 135°20'0 0.1
2017-Nov-16 23:30N 34°32' E 135°20'0 0.1
2017-Nov-16 22:58N 34°32' E 135°21'0 0.1
2017-Nov-16 22:30N 34°32' E 135°20'0 0.0
2017-Nov-16 22:00N 34°32' E 135°20'0 0.0
2017-Nov-16 21:29N 34°32' E 135°20'0 0.1
2017-Nov-16 21:00N 34°32' E 135°20'0 0.1
2017-Nov-16 20:18N 34°32' E 135°21'0 0.0
2017-Nov-16 19:55N 34°32' E 135°21'0 0.0
2017-Nov-16 19:30N 34°32' E 135°21'0 0.0
2017-Nov-16 19:00N 34°32' E 135°21'0 0.0
2017-Nov-16 18:28N 34°32' E 135°21'0 0.0
2017-Nov-16 17:51N 34°32' E 135°21'0 0.1
2017-Nov-16 17:30N 34°32' E 135°21'0 0.1
2017-Nov-16 16:59N 34°32' E 135°20'0 0.0
2017-Nov-16 16:30N 34°32' E 135°20'0 0.1
2017-Nov-16 16:00N 34°32' E 135°21'0 0.0
2017-Nov-16 12:51N 34°32' E 135°21'0 0.0
2017-Nov-16 12:21N 34°32' E 135°21'0 0.0
2017-Nov-16 11:58N 34°32' E 135°21'0 0.0
2017-Nov-16 11:01N 34°32' E 135°21'0 0.6
2017-Nov-16 11:00N 34°32' E 135°21'0 0.0
2017-Nov-16 10:02N 34°32' E 135°21'0 0.0
2017-Nov-16 09:54N 34°32' E 135°21'0 0.0
2017-Nov-16 09:26N 34°32' E 135°21'0 0.0
2017-Nov-16 08:56N 34°32' E 135°21'0 0.0
2017-Nov-16 08:15N 34°32' E 135°21'0 0.2
2017-Nov-16 07:56N 34°32' E 135°20'410.0
2017-Nov-16 07:29N 34°29' E 135°16'1710.3
2017-Nov-16 05:49N 34°15' E 135°03'310.7
2017-Nov-16 05:30N 34°13' E 135°05'510.3
2017-Nov-16 05:00N 34°09' E 135°10'2 3.9
2017-Nov-16 04:30N 34°09' E 135°12'0 0.0
2017-Nov-16 04:00N 34°09' E 135°12'0 0.0
2017-Nov-16 03:30N 34°09' E 135°12'0 0.0
2017-Nov-16 03:00N 34°09' E 135°12'0 0.0
2017-Nov-16 02:30N 34°09' E 135°12'0 0.0
2017-Nov-16 02:00N 34°09' E 135°12'2 3.8
2017-Nov-16 01:30N 34°09' E 135°10'0 0.1
2017-Nov-16 01:00N 34°09' E 135°10'0 0.0
2017-Nov-16 00:30N 34°09' E 135°10'0 0.1
2017-Nov-16 00:01N 34°09' E 135°10'0 0.1
2017-Nov-15 23:29N 34°09' E 135°10'0 0.0
2017-Nov-15 23:01N 34°09' E 135°10'0 0.0
2017-Nov-15 22:30N 34°09' E 135°10'0 0.0
2017-Nov-15 22:00N 34°09' E 135°10'0 0.0
2017-Nov-15 21:30N 34°09' E 135°10'0 0.1
2017-Nov-15 21:00N 34°09' E 135°10'0 0.1
2017-Nov-15 20:30N 34°09' E 135°10'0 0.1
2017-Nov-15 20:00N 34°09' E 135°10'0 0.1
2017-Nov-15 19:30N 34°09' E 135°10'0 0.1
2017-Nov-15 19:00N 34°09' E 135°10'0 0.1
2017-Nov-15 18:30N 34°09' E 135°10'0 0.0
2017-Nov-15 18:00N 34°09' E 135°10'0 0.2
2017-Nov-15 17:31N 34°09' E 135°10'0 0.0
2017-Nov-15 17:00N 34°09' E 135°10'0 0.0
2017-Nov-15 16:30N 34°09' E 135°10'0 0.0
2017-Nov-15 16:00N 34°09' E 135°10'0 0.1
2017-Nov-15 15:30N 34°09' E 135°10'0 0.1
2017-Nov-15 15:00N 34°09' E 135°10'0 0.0
2017-Nov-15 14:31N 34°09' E 135°10'1 1.6
2017-Nov-15 14:00N 34°10' E 135°09'611.9
2017-Nov-15 13:30N 34°14' E 135°04'1311.4
2017-Nov-15 12:25N 34°25' E 135°10'611.0
2017-Nov-15 11:55N 34°29' E 135°15'410.8
2017-Nov-15 11:30N 34°32' E 135°20'510.2
2017-Nov-15 11:00N 34°33' E 135°25'0 0.7
2017-Nov-15 10:30N 34°33' E 135°26'0 0.0
2017-Nov-15 10:00N 34°33' E 135°26'0 0.0
2017-Nov-15 09:30N 34°33' E 135°26'0 0.0
2017-Nov-15 09:00N 34°33' E 135°26'0 0.0
2017-Nov-15 08:30N 34°33' E 135°26'0 0.0
2017-Nov-15 08:00N 34°33' E 135°26'0 0.0
2017-Nov-15 07:30N 34°33' E 135°26'0 0.0
2017-Nov-15 06:59N 34°33' E 135°26'0 0.0
2017-Nov-15 06:30N 34°33' E 135°26'2 3.4
2017-Nov-15 06:00N 34°33' E 135°24'3 4.9
2017-Nov-15 05:22N 34°32' E 135°20'411.0
2017-Nov-15 05:00N 34°29' E 135°16'610.8
2017-Nov-15 04:29N 34°26' E 135°11'13 9.5
2017-Nov-15 03:09N 34°15' E 135°04'210.8
2017-Nov-15 03:00N 34°14' E 135°05'510.6
2017-Nov-15 02:30N 34°10' E 135°09'3 5.2
2017-Nov-15 02:00N 34°09' E 135°12'0 0.1
2017-Nov-15 01:30N 34°09' E 135°12'0 0.0
2017-Nov-15 01:00N 34°09' E 135°12'0 0.0
2017-Nov-15 00:30N 34°09' E 135°12'0 0.1
2017-Nov-15 00:00N 34°09' E 135°12'0 0.6
2017-Nov-14 23:30N 34°09' E 135°12'0 0.0
2017-Nov-14 23:00N 34°09' E 135°12'0 0.0
2017-Nov-14 22:30N 34°09' E 135°12'0 0.0
2017-Nov-14 22:00N 34°09' E 135°12'0 0.0
2017-Nov-14 21:30N 34°09' E 135°12'0 0.0
2017-Nov-14 21:00N 34°09' E 135°12'0 0.0
2017-Nov-14 20:30N 34°09' E 135°12'0 0.0
2017-Nov-14 20:00N 34°09' E 135°12'0 0.0
2017-Nov-14 19:30N 34°09' E 135°12'0 0.0
2017-Nov-14 19:00N 34°09' E 135°12'0 0.0
2017-Nov-14 18:30N 34°09' E 135°12'0 0.0
2017-Nov-14 18:00N 34°09' E 135°12'0 0.0
2017-Nov-14 17:30N 34°09' E 135°12'0 0.0
2017-Nov-14 17:00N 34°09' E 135°12'0 0.0
2017-Nov-14 16:30N 34°09' E 135°12'0 0.0
2017-Nov-14 16:00N 34°09' E 135°12'0 0.0
2017-Nov-14 15:30N 34°09' E 135°12'0 0.0
2017-Nov-14 15:00N 34°09' E 135°12'0 0.0
2017-Nov-14 14:30N 34°09' E 135°12'0 0.0
2017-Nov-14 14:00N 34°09' E 135°12'0 0.0
2017-Nov-14 13:30N 34°09' E 135°12'0 0.0
2017-Nov-14 13:00N 34°09' E 135°12'0 0.0
2017-Nov-14 12:30N 34°09' E 135°12'0 0.0
2017-Nov-14 12:00N 34°09' E 135°12'0 0.0
2017-Nov-14 11:30N 34°09' E 135°12'0 0.0
2017-Nov-14 11:00N 34°09' E 135°12'0 0.0
2017-Nov-14 10:30N 34°09' E 135°12'0 0.0
2017-Nov-14 10:00N 34°09' E 135°12'0 0.0
2017-Nov-14 09:30N 34°09' E 135°12'0 0.0
2017-Nov-14 09:00N 34°09' E 135°12'0 0.0
2017-Nov-14 08:30N 34°09' E 135°12'0 0.0
2017-Nov-14 08:00N 34°09' E 135°12'0 0.0
2017-Nov-14 07:30N 34°09' E 135°12'0 0.0
2017-Nov-14 07:00N 34°09' E 135°12'0 0.0
2017-Nov-14 06:30N 34°09' E 135°12'0 0.0
2017-Nov-14 06:00N 34°09' E 135°12'0 0.0
2017-Nov-14 05:30N 34°09' E 135°12'0 0.0
2017-Nov-14 05:00N 34°09' E 135°12'0 0.0
2017-Nov-14 04:30N 34°09' E 135°12'0 0.0
2017-Nov-14 04:00N 34°09' E 135°12'0 0.0
2017-Nov-14 03:30N 34°09' E 135°12'0 0.0
2017-Nov-14 03:00N 34°09' E 135°12'0 0.0
2017-Nov-14 02:30N 34°09' E 135°12'0 0.0
2017-Nov-14 02:00N 34°09' E 135°12'0 0.0
2017-Nov-14 01:30N 34°09' E 135°12'0 0.0
2017-Nov-14 01:00N 34°09' E 135°12'0 0.0
2017-Nov-14 00:31N 34°09' E 135°12'0 0.0
2017-Nov-14 00:00N 34°09' E 135°12'1 1.9
2017-Nov-13 23:31N 34°09' E 135°11'2 2.9
2017-Nov-13 22:58N 34°09' E 135°09'0 0.1
2017-Nov-13 22:30N 34°09' E 135°09'0 0.0
2017-Nov-13 22:00N 34°09' E 135°09'7 0.2
2017-Nov-12 03:40N 34°09' E 135°01'310.3
2017-Nov-12 03:23N 34°08' E 135°04'410.9
2017-Nov-12 03:00N 34°09' E 135°09'3 5.1
2017-Nov-12 02:30N 34°09' E 135°12'0 0.0
2017-Nov-12 02:00N 34°09' E 135°12'0 0.0
2017-Nov-12 01:30N 34°09' E 135°12'0 0.0
2017-Nov-12 01:00N 34°09' E 135°12'0 0.0
2017-Nov-12 00:30N 34°09' E 135°12'2 4.1
2017-Nov-12 00:00N 34°09' E 135°10'0 0.1
2017-Nov-11 23:30N 34°09' E 135°10'0 0.0
2017-Nov-11 23:00N 34°09' E 135°10'0 0.0
2017-Nov-11 22:31N 34°09' E 135°10'0 0.0
2017-Nov-11 21:59N 34°09' E 135°10'3 5.9
2017-Nov-11 21:30N 34°10' E 135°06'3 0.1
2017-Nov-10 03:30N 34°07' E 135°04'510.6
2017-Nov-10 03:00N 34°09' E 135°10'  
Track history (hours):
 
Tides and Currents Weather Stations Pressure Air Temp Water Temp Dewpoint Dewpoint Depression Visibility Wind Speed Wind Dir Waves Ship Positions

Yoshomaru

Last reported at 2017-Nov-20 00:30 UTC. Time now 2017-Nov-23 13:07 UTC.
Position N 34°33' E 135°26'.

Length 63 m; draft 4.3 m.

Type: Tanker. MMSI: 431001343.

Date/timePositionNaut miles runAvg speedWind from/ knotsBaromVisibWave heightAir tempDewpointWater temp
2017-Nov-20 00:30N 34°33' E 135°26'0 0.0
2017-Nov-20 00:00N 34°33' E 135°26'0 0.0
2017-Nov-19 23:30N 34°33' E 135°26'0 0.0
2017-Nov-19 22:58N 34°33' E 135°26'0 0.2
2017-Nov-19 22:26N 34°33' E 135°26'3 7.0
2017-Nov-19 21:59N 34°32' E 135°22'1 1.0
2017-Nov-19 20:34N 34°31' E 135°21'0 0.0
2017-Nov-19 20:12N 34°31' E 135°21'0 0.0
2017-Nov-19 19:45N 34°31' E 135°21'0 0.0
2017-Nov-19 19:20N 34°31' E 135°21'0 0.0
2017-Nov-19 18:56N 34°31' E 135°21'0 0.0
2017-Nov-19 18:05N 34°31' E 135°21'0 0.0
2017-Nov-19 17:37N 34°31' E 135°21'0 0.0
2017-Nov-19 17:23N 34°31' E 135°21'0 0.0
2017-Nov-19 16:57N 34°31' E 135°21'0 0.0
2017-Nov-19 15:56N 34°31' E 135°21'0 0.0
2017-Nov-19 15:27N 34°31' E 135°21'0 0.0
2017-Nov-19 15:00N 34°31' E 135°21'0 0.0
2017-Nov-19 14:17N 34°31' E 135°21'0 0.0
2017-Nov-19 13:37N 34°31' E 135°21'0 0.0
2017-Nov-19 13:29N 34°31' E 135°21'0 0.0
2017-Nov-19 12:53N 34°31' E 135°21'0 0.0
2017-Nov-19 12:22N 34°31' E 135°21'0 0.0
2017-Nov-19 12:00N 34°31' E 135°21'0 0.0
2017-Nov-19 11:28N 34°31' E 135°21'0 0.0
2017-Nov-19 11:00N 34°31' E 135°21'4 8.2
2017-Nov-19 10:30N 34°29' E 135°17'610.6
2017-Nov-19 09:54N 34°26' E 135°11'410.6
2017-Nov-19 09:30N 34°22' E 135°07'810.0
2017-Nov-19 08:42N 34°15' E 135°04'210.1
2017-Nov-19 08:28N 34°13' E 135°06'6 5.6
2017-Nov-19 07:19N 34°09' E 135°12'0 0.2
2017-Nov-19 07:00N 34°09' E 135°12'0 0.1
2017-Nov-19 06:31N 34°09' E 135°12'0 0.0
2017-Nov-19 06:00N 34°09' E 135°12'0 0.0
2017-Nov-19 05:30N 34°09' E 135°12'1 1.9
2017-Nov-19 05:00N 34°09' E 135°11'0 0.6
2017-Nov-19 04:30N 34°09' E 135°11'1 3.0
2017-Nov-19 04:00N 34°09' E 135°10'0 0.1
2017-Nov-19 03:30N 34°09' E 135°09'0 0.0
2017-Nov-19 03:00N 34°09' E 135°09'0 0.0
2017-Nov-19 02:30N 34°09' E 135°09'0 0.0
2017-Nov-19 02:00N 34°09' E 135°09'0 0.0
2017-Nov-19 01:30N 34°09' E 135°09'0 0.0
2017-Nov-19 01:01N 34°09' E 135°09'0 0.0
2017-Nov-19 00:30N 34°09' E 135°09'0 0.0
2017-Nov-19 00:00N 34°09' E 135°09'0 0.0
2017-Nov-18 23:30N 34°09' E 135°09'0 0.0
2017-Nov-18 23:00N 34°09' E 135°09'0 0.0
2017-Nov-18 22:30N 34°09' E 135°09'0 0.0
2017-Nov-18 22:00N 34°09' E 135°09'0 0.0
2017-Nov-18 21:30N 34°09' E 135°09'0 0.1
2017-Nov-18 21:01N 34°09' E 135°09'0 0.0
2017-Nov-18 20:30N 34°09' E 135°09'0 0.0
2017-Nov-18 20:00N 34°09' E 135°09'0 0.1
2017-Nov-18 19:31N 34°09' E 135°09'0 0.1
2017-Nov-18 19:00N 34°09' E 135°09'0 0.0
2017-Nov-18 18:29N 34°09' E 135°09'0 0.0
2017-Nov-18 18:01N 34°09' E 135°09'0 0.0
2017-Nov-18 17:31N 34°09' E 135°09'0 0.0
2017-Nov-18 17:00N 34°09' E 135°09'0 0.0
2017-Nov-18 16:30N 34°09' E 135°09'0 0.0
2017-Nov-18 16:00N 34°09' E 135°09'0 0.0
2017-Nov-18 15:30N 34°09' E 135°09'0 0.0
2017-Nov-18 15:00N 34°09' E 135°09'0 0.0
2017-Nov-18 14:30N 34°09' E 135°09'0 0.0
2017-Nov-18 14:00N 34°09' E 135°09'2 4.7
2017-Nov-18 13:30N 34°11' E 135°08'711.4
2017-Nov-18 12:51N 34°18' E 135°04'1012.1
2017-Nov-18 12:03N 34°26' E 135°11'111.5
2017-Nov-18 12:00N 34°26' E 135°11'611.4
2017-Nov-18 11:30N 34°30' E 135°16'711.7
2017-Nov-18 10:53N 34°33' E 135°24'2 4.5
2017-Nov-18 10:30N 34°33' E 135°26'0 0.0
2017-Nov-18 10:00N 34°33' E 135°26'0 0.0
2017-Nov-18 09:30N 34°33' E 135°26'0 0.0
2017-Nov-18 09:00N 34°33' E 135°26'0 0.0
2017-Nov-18 08:25N 34°33' E 135°26'0 0.0
2017-Nov-18 07:53N 34°33' E 135°26'0 0.0
2017-Nov-18 07:30N 34°33' E 135°26'0 0.0
2017-Nov-18 07:00N 34°33' E 135°26'0 0.0
2017-Nov-18 06:30N 34°33' E 135°26'3 4.9
2017-Nov-18 05:59N 34°33' E 135°23'610.7
2017-Nov-18 05:28N 34°30' E 135°17'510.8
2017-Nov-18 05:00N 34°27' E 135°12'610.0
2017-Nov-18 04:26N 34°22' E 135°08'5 9.9
2017-Nov-18 03:58N 34°19' E 135°04'4 8.3
2017-Nov-18 03:31N 34°15' E 135°04'510.7
2017-Nov-18 03:00N 34°10' E 135°08'4 1.8
2017-Nov-18 01:04N 34°09' E 135°12'0 0.0
2017-Nov-18 00:58N 34°09' E 135°12'0 0.0
2017-Nov-18 00:30N 34°09' E 135°12'0 0.0
2017-Nov-18 00:00N 34°09' E 135°12'1 2.1
2017-Nov-17 23:31N 34°09' E 135°11'1 1.9
2017-Nov-17 23:00N 34°09' E 135°10'0 0.0
2017-Nov-17 22:31N 34°09' E 135°10'0 0.0
2017-Nov-17 22:00N 34°09' E 135°10'0 0.0
2017-Nov-17 21:30N 34°09' E 135°10'0 0.0
2017-Nov-17 21:00N 34°09' E 135°10'0 0.0
2017-Nov-17 20:31N 34°09' E 135°10'0 0.0
2017-Nov-17 20:00N 34°09' E 135°10'0 0.0
2017-Nov-17 19:30N 34°09' E 135°10'0 0.0
2017-Nov-17 19:00N 34°09' E 135°10'0 0.1
2017-Nov-17 18:30N 34°09' E 135°10'0 0.0
2017-Nov-17 18:01N 34°09' E 135°10'0 0.0
2017-Nov-17 17:30N 34°09' E 135°10'0 0.0
2017-Nov-17 17:00N 34°09' E 135°10'0 0.0
2017-Nov-17 16:30N 34°09' E 135°10'0 0.0
2017-Nov-17 16:01N 34°09' E 135°10'0 0.0
2017-Nov-17 15:30N 34°09' E 135°10'0 0.0
2017-Nov-17 15:00N 34°09' E 135°10'0 0.1
2017-Nov-17 14:30N 34°09' E 135°10'0 0.0
2017-Nov-17 14:00N 34°09' E 135°10'0 0.0
2017-Nov-17 13:31N 34°09' E 135°10'0 0.0
2017-Nov-17 13:00N 34°09' E 135°10'0 0.1
2017-Nov-17 12:30N 34°09' E 135°10'0 0.0
2017-Nov-17 12:00N 34°09' E 135°10'0 0.0
2017-Nov-17 11:30N 34°09' E 135°10'0 0.0
2017-Nov-17 11:00N 34°09' E 135°10'0 0.0
2017-Nov-17 10:30N 34°09' E 135°10'0 0.0
2017-Nov-17 10:00N 34°09' E 135°10'0 0.1
2017-Nov-17 09:30N 34°09' E 135°10'0 0.1
2017-Nov-17 09:00N 34°09' E 135°10'0 0.1
2017-Nov-17 08:30N 34°09' E 135°10'2 4.8
2017-Nov-17 08:00N 34°11' E 135°08'611.2
2017-Nov-17 07:30N 34°15' E 135°03'1311.2
2017-Nov-17 06:21N 34°26' E 135°11'1311.3
2017-Nov-17 05:10N 34°33' E 135°25'1 3.7
2017-Nov-17 05:00N 34°33' E 135°26'0 0.0
2017-Nov-17 04:30N 34°33' E 135°26'0 0.0
2017-Nov-17 04:00N 34°33' E 135°26'0 0.0
2017-Nov-17 03:30N 34°33' E 135°26'0 0.0
2017-Nov-17 03:00N 34°33' E 135°26'0 0.0
2017-Nov-17 02:30N 34°33' E 135°26'0 0.0
2017-Nov-17 02:00N 34°33' E 135°26'0 0.0
2017-Nov-17 01:30N 34°33' E 135°26'0 0.0
2017-Nov-17 01:00N 34°33' E 135°26'0 0.4
2017-Nov-17 00:29N 34°33' E 135°26'5 9.2
2017-Nov-16 23:59N 34°32' E 135°20'0 0.1
2017-Nov-16 23:30N 34°32' E 135°20'0 0.1
2017-Nov-16 22:58N 34°32' E 135°21'0 0.1
2017-Nov-16 22:30N 34°32' E 135°20'0 0.0
2017-Nov-16 22:00N 34°32' E 135°20'0 0.0
2017-Nov-16 21:29N 34°32' E 135°20'0 0.1
2017-Nov-16 21:00N 34°32' E 135°20'0 0.1
2017-Nov-16 20:18N 34°32' E 135°21'0 0.0
2017-Nov-16 19:55N 34°32' E 135°21'0 0.0
2017-Nov-16 19:30N 34°32' E 135°21'0 0.0
2017-Nov-16 19:00N 34°32' E 135°21'0 0.0
2017-Nov-16 18:28N 34°32' E 135°21'0 0.0
2017-Nov-16 17:51N 34°32' E 135°21'0 0.1
2017-Nov-16 17:30N 34°32' E 135°21'0 0.1
2017-Nov-16 16:59N 34°32' E 135°20'0 0.0
2017-Nov-16 16:30N 34°32' E 135°20'0 0.1
2017-Nov-16 16:00N 34°32' E 135°21'0 0.0
2017-Nov-16 12:51N 34°32' E 135°21'0 0.0
2017-Nov-16 12:21N 34°32' E 135°21'0 0.0
2017-Nov-16 11:58N 34°32' E 135°21'0 0.0
2017-Nov-16 11:01N 34°32' E 135°21'0 0.6
2017-Nov-16 11:00N 34°32' E 135°21'0 0.0
2017-Nov-16 10:02N 34°32' E 135°21'0 0.0
2017-Nov-16 09:54N 34°32' E 135°21'0 0.0
2017-Nov-16 09:26N 34°32' E 135°21'0 0.0
2017-Nov-16 08:56N 34°32' E 135°21'0 0.0
2017-Nov-16 08:15N 34°32' E 135°21'0 0.2
2017-Nov-16 07:56N 34°32' E 135°20'410.0
2017-Nov-16 07:29N 34°29' E 135°16'1710.3
2017-Nov-16 05:49N 34°15' E 135°03'310.7
2017-Nov-16 05:30N 34°13' E 135°05'510.3
2017-Nov-16 05:00N 34°09' E 135°10'2 3.9
2017-Nov-16 04:30N 34°09' E 135°12'0 0.0
2017-Nov-16 04:00N 34°09' E 135°12'0 0.0
2017-Nov-16 03:30N 34°09' E 135°12'0 0.0
2017-Nov-16 03:00N 34°09' E 135°12'0 0.0
2017-Nov-16 02:30N 34°09' E 135°12'0 0.0
2017-Nov-16 02:00N 34°09' E 135°12'2 3.8
2017-Nov-16 01:30N 34°09' E 135°10'0 0.1
2017-Nov-16 01:00N 34°09' E 135°10'0 0.0
2017-Nov-16 00:30N 34°09' E 135°10'0 0.1
2017-Nov-16 00:01N 34°09' E 135°10'0 0.1
2017-Nov-15 23:29N 34°09' E 135°10'0 0.0
2017-Nov-15 23:01N 34°09' E 135°10'0 0.0
2017-Nov-15 22:30N 34°09' E 135°10'0 0.0
2017-Nov-15 22:00N 34°09' E 135°10'0 0.0
2017-Nov-15 21:30N 34°09' E 135°10'0 0.1
2017-Nov-15 21:00N 34°09' E 135°10'0 0.1
2017-Nov-15 20:30N 34°09' E 135°10'0 0.1
2017-Nov-15 20:00N 34°09' E 135°10'0 0.1
2017-Nov-15 19:30N 34°09' E 135°10'0 0.1
2017-Nov-15 19:00N 34°09' E 135°10'0 0.1
2017-Nov-15 18:30N 34°09' E 135°10'0 0.0
2017-Nov-15 18:00N 34°09' E 135°10'0 0.2
2017-Nov-15 17:31N 34°09' E 135°10'0 0.0
2017-Nov-15 17:00N 34°09' E 135°10'0 0.0
2017-Nov-15 16:30N 34°09' E 135°10'0 0.0
2017-Nov-15 16:00N 34°09' E 135°10'0 0.1
2017-Nov-15 15:30N 34°09' E 135°10'0 0.1
2017-Nov-15 15:00N 34°09' E 135°10'0 0.0
2017-Nov-15 14:31N 34°09' E 135°10'1 1.6
2017-Nov-15 14:00N 34°10' E 135°09'611.9
2017-Nov-15 13:30N 34°14' E 135°04'1311.4
2017-Nov-15 12:25N 34°25' E 135°10'611.0
2017-Nov-15 11:55N 34°29' E 135°15'410.8
2017-Nov-15 11:30N 34°32' E 135°20'510.2
2017-Nov-15 11:00N 34°33' E 135°25'0 0.7
2017-Nov-15 10:30N 34°33' E 135°26'0 0.0
2017-Nov-15 10:00N 34°33' E 135°26'0 0.0
2017-Nov-15 09:30N 34°33' E 135°26'0 0.0
2017-Nov-15 09:00N 34°33' E 135°26'0 0.0
2017-Nov-15 08:30N 34°33' E 135°26'0 0.0
2017-Nov-15 08:00N 34°33' E 135°26'0 0.0
2017-Nov-15 07:30N 34°33' E 135°26'0 0.0
2017-Nov-15 06:59N 34°33' E 135°26'0 0.0
2017-Nov-15 06:30N 34°33' E 135°26'2 3.4
2017-Nov-15 06:00N 34°33' E 135°24'3 4.9
2017-Nov-15 05:22N 34°32' E 135°20'411.0
2017-Nov-15 05:00N 34°29' E 135°16'610.8
2017-Nov-15 04:29N 34°26' E 135°11'13 9.5
2017-Nov-15 03:09N 34°15' E 135°04'210.8
2017-Nov-15 03:00N 34°14' E 135°05'510.6
2017-Nov-15 02:30N 34°10' E 135°09'3 5.2
2017-Nov-15 02:00N 34°09' E 135°12'0 0.1
2017-Nov-15 01:30N 34°09' E 135°12'0 0.0
2017-Nov-15 01:00N 34°09' E 135°12'0 0.0
2017-Nov-15 00:30N 34°09' E 135°12'0 0.1
2017-Nov-15 00:00N 34°09' E 135°12'0 0.6
2017-Nov-14 23:30N 34°09' E 135°12'0 0.0
2017-Nov-14 23:00N 34°09' E 135°12'0 0.0
2017-Nov-14 22:30N 34°09' E 135°12'0 0.0
2017-Nov-14 22:00N 34°09' E 135°12'0 0.0
2017-Nov-14 21:30N 34°09' E 135°12'0 0.0
2017-Nov-14 21:00N 34°09' E 135°12'0 0.0
2017-Nov-14 20:30N 34°09' E 135°12'0 0.0
2017-Nov-14 20:00N 34°09' E 135°12'0 0.0
2017-Nov-14 19:30N 34°09' E 135°12'0 0.0
2017-Nov-14 19:00N 34°09' E 135°12'0 0.0
2017-Nov-14 18:30N 34°09' E 135°12'0 0.0
2017-Nov-14 18:00N 34°09' E 135°12'0 0.0
2017-Nov-14 17:30N 34°09' E 135°12'0 0.0
2017-Nov-14 17:00N 34°09' E 135°12'0 0.0
2017-Nov-14 16:30N 34°09' E 135°12'0 0.0
2017-Nov-14 16:00N 34°09' E 135°12'0 0.0
2017-Nov-14 15:30N 34°09' E 135°12'0 0.0
2017-Nov-14 15:00N 34°09' E 135°12'0 0.0
2017-Nov-14 14:30N 34°09' E 135°12'0 0.0
2017-Nov-14 14:00N 34°09' E 135°12'0 0.0
2017-Nov-14 13:30N 34°09' E 135°12'0 0.0
2017-Nov-14 13:00N 34°09' E 135°12'0 0.0
2017-Nov-14 12:30N 34°09' E 135°12'0 0.0
2017-Nov-14 12:00N 34°09' E 135°12'0 0.0
2017-Nov-14 11:30N 34°09' E 135°12'0 0.0
2017-Nov-14 11:00N 34°09' E 135°12'0 0.0
2017-Nov-14 10:30N 34°09' E 135°12'0 0.0
2017-Nov-14 10:00N 34°09' E 135°12'0 0.0
2017-Nov-14 09:30N 34°09' E 135°12'0 0.0
2017-Nov-14 09:00N 34°09' E 135°12'0 0.0
2017-Nov-14 08:30N 34°09' E 135°12'0 0.0
2017-Nov-14 08:00N 34°09' E 135°12'0 0.0
2017-Nov-14 07:30N 34°09' E 135°12'0 0.0
2017-Nov-14 07:00N 34°09' E 135°12'0 0.0
2017-Nov-14 06:30N 34°09' E 135°12'0 0.0
2017-Nov-14 06:00N 34°09' E 135°12'0 0.0
2017-Nov-14 05:30N 34°09' E 135°12'0 0.0
2017-Nov-14 05:00N 34°09' E 135°12'0 0.0
2017-Nov-14 04:30N 34°09' E 135°12'0 0.0
2017-Nov-14 04:00N 34°09' E 135°12'0 0.0
2017-Nov-14 03:30N 34°09' E 135°12'0 0.0
2017-Nov-14 03:00N 34°09' E 135°12'0 0.0
2017-Nov-14 02:30N 34°09' E 135°12'0 0.0
2017-Nov-14 02:00N 34°09' E 135°12'0 0.0
2017-Nov-14 01:30N 34°09' E 135°12'0 0.0
2017-Nov-14 01:00N 34°09' E 135°12'0 0.0
2017-Nov-14 00:31N 34°09' E 135°12'0 0.0
2017-Nov-14 00:00N 34°09' E 135°12'1 1.9
2017-Nov-13 23:31N 34°09' E 135°11'2 2.9
2017-Nov-13 22:58N 34°09' E 135°09'0 0.1
2017-Nov-13 22:30N 34°09' E 135°09'0 0.0
2017-Nov-13 22:00N 34°09' E 135°09'7 0.2
2017-Nov-12 03:40N 34°09' E 135°01'310.3
2017-Nov-12 03:23N 34°08' E 135°04'410.9
2017-Nov-12 03:00N 34°09' E 135°09'3 5.1
2017-Nov-12 02:30N 34°09' E 135°12'0 0.0
2017-Nov-12 02:00N 34°09' E 135°12'0 0.0
2017-Nov-12 01:30N 34°09' E 135°12'0 0.0
2017-Nov-12 01:00N 34°09' E 135°12'0 0.0
2017-Nov-12 00:30N 34°09' E 135°12'2 4.1
2017-Nov-12 00:00N 34°09' E 135°10'0 0.1
2017-Nov-11 23:30N 34°09' E 135°10'0 0.0
2017-Nov-11 23:00N 34°09' E 135°10'0 0.0
2017-Nov-11 22:31N 34°09' E 135°10'0 0.0
2017-Nov-11 21:59N 34°09' E 135°10'3 5.9
2017-Nov-11 21:30N 34°10' E 135°06'3 0.1
2017-Nov-10 03:30N 34°07' E 135°04'510.6
2017-Nov-10 03:00N 34°09' E 135°10'  

Dump ship's entire track history